Time;durP1;ratioP1;P1;durP2;ratioP2;P2;SDS_P1;SDS_P2;PMS_P1;PMS_P2;Temp;Humidity;BMP_temperature;BMP_pressure;BME280_temperature;BME280_humidity;BME280_pressure;Samples;Min_cycle;Max_cycle;Signal;HPM_P1;HPM_P2
2023/12/09 00:00:30;;;;;;;38.07;19.53;;;;;;;;;;5049659;28;20432;-72
2023/12/09 00:02:57;;;;;;;36.30;20.13;;;;;;;;;;5052529;28;20472;-71
2023/12/09 00:05:24;;;;;;;36.28;19.15;;;;;;;;;;5055271;28;20451;-71
2023/12/09 00:07:51;;;;;;;40.35;21.25;;;;;;;;;;5045224;28;20430;-71
2023/12/09 00:10:18;;;;;;;41.38;21.25;;;;;;;;;;5048309;28;20474;-71
2023/12/09 00:12:48;;;;;;;40.08;20.73;;;;;;;;;;5064264;28;20476;-71
2023/12/09 00:15:15;;;;;;;40.33;21.05;;;;;;;;;;5037103;28;20429;-71
2023/12/09 00:17:43;;;;;;;43.97;21.00;;;;;;;;;;5044176;28;20522;-71
2023/12/09 00:20:10;;;;;;;41.90;22.10;;;;;;;;;;5051812;28;20433;-71
2023/12/09 00:22:38;;;;;;;40.08;21.58;;;;;;;;;;5055536;28;20441;-71
2023/12/09 00:25:06;;;;;;;37.33;20.27;;;;;;;;;;5049427;28;20510;-71
2023/12/09 00:27:35;;;;;;;39.55;20.73;;;;;;;;;;5045949;28;20425;-71
2023/12/09 00:30:02;;;;;;;39.80;20.93;;;;;;;;;;5039198;28;21086;-71
2023/12/09 00:32:29;;;;;;;43.08;21.55;;;;;;;;;;5042320;28;20431;-71
2023/12/09 00:34:57;;;;;;;39.53;20.83;;;;;;;;;;5048034;28;20957;-71
2023/12/09 00:37:24;;;;;;;37.08;19.85;;;;;;;;;;5057590;28;20475;-71
2023/12/09 00:39:51;;;;;;;39.85;20.88;;;;;;;;;;5049375;28;20445;-71
2023/12/09 00:42:19;;;;;;;38.03;20.33;;;;;;;;;;5065456;28;20435;-71
2023/12/09 00:44:46;;;;;;;41.65;21.45;;;;;;;;;;5033034;28;20429;-71
2023/12/09 00:47:13;;;;;;;36.40;19.20;;;;;;;;;;5054942;28;20487;-71
2023/12/09 00:49:40;;;;;;;44.97;22.17;;;;;;;;;;5057932;28;20430;-71
2023/12/09 00:52:07;;;;;;;43.03;22.17;;;;;;;;;;5054532;28;20423;-71
2023/12/09 00:54:35;;;;;;;39.10;20.48;;;;;;;;;;5045855;28;20468;-71
2023/12/09 00:57:02;;;;;;;35.75;20.10;;;;;;;;;;5043624;28;20440;-71
2023/12/09 00:59:30;;;;;;;38.25;20.25;;;;;;;;;;5051734;28;20461;-71
2023/12/09 01:01:57;;;;;;;31.52;18.70;;;;;;;;;;5055718;28;20489;-71
2023/12/09 01:04:24;;;;;;;36.65;19.00;;;;;;;;;;5057112;28;20508;-71
2023/12/09 01:06:51;;;;;;;33.90;19.15;;;;;;;;;;5046546;28;20934;-71
2023/12/09 01:09:19;;;;;;;32.97;18.33;;;;;;;;;;5051114;28;20429;-71
2023/12/09 01:11:46;;;;;;;35.05;18.80;;;;;;;;;;5051595;28;21205;-71
2023/12/09 01:14:13;;;;;;;34.35;19.30;;;;;;;;;;5038853;28;20417;-69
2023/12/09 01:16:40;;;;;;;38.30;19.52;;;;;;;;;;5040755;28;20472;-71
2023/12/09 01:19:08;;;;;;;34.15;18.27;;;;;;;;;;5053359;28;20434;-72
2023/12/09 01:21:35;;;;;;;33.50;18.77;;;;;;;;;;5043120;28;20480;-72
2023/12/09 01:24:04;;;;;;;30.75;17.60;;;;;;;;;;5044356;28;20438;-72
2023/12/09 01:26:32;;;;;;;35.85;18.77;;;;;;;;;;5051755;28;20458;-71
2023/12/09 01:29:02;;;;;;;34.83;19.97;;;;;;;;;;5058585;28;20432;-72
2023/12/09 01:31:30;;;;;;;35.83;19.33;;;;;;;;;;5051808;28;20433;-72
2023/12/09 01:33:57;;;;;;;33.37;18.57;;;;;;;;;;5042870;28;20514;-72
2023/12/09 01:36:25;;;;;;;33.40;18.88;;;;;;;;;;5046211;28;20423;-72
2023/12/09 01:38:52;;;;;;;34.83;18.75;;;;;;;;;;5053507;28;20439;-72
2023/12/09 01:41:19;;;;;;;33.58;18.65;;;;;;;;;;5048774;28;20913;-72
2023/12/09 01:43:51;;;;;;;38.50;19.35;;;;;;;;;;5033311;28;20433;-72
2023/12/09 01:46:18;;;;;;;35.10;19.00;;;;;;;;;;5054070;28;20462;-72
2023/12/09 01:48:46;;;;;;;38.33;19.63;;;;;;;;;;5041253;28;20438;-72
2023/12/09 01:51:14;;;;;;;35.47;18.88;;;;;;;;;;5045153;28;20872;-72
2023/12/09 01:53:42;;;;;;;37.75;20.20;;;;;;;;;;5049409;28;20482;-70
2023/12/09 01:56:11;;;;;;;38.63;19.52;;;;;;;;;;5055784;28;20456;-70
2023/12/09 01:58:38;;;;;;;40.50;20.93;;;;;;;;;;5031247;28;20433;-71
2023/12/09 02:01:06;;;;;;;39.47;20.30;;;;;;;;;;5037059;28;20466;-71
2023/12/09 02:03:33;;;;;;;37.58;20.13;;;;;;;;;;5032729;28;20498;-71
2023/12/09 02:06:01;;;;;;;41.28;20.35;;;;;;;;;;5035773;28;20442;-71
2023/12/09 02:08:28;;;;;;;43.00;20.33;;;;;;;;;;5028385;28;20434;-71
2023/12/09 02:11:06;;;;;;;37.08;18.63;;;;;;;;;;5061686;28;20499;-71
2023/12/09 02:13:40;;;;;;;42.08;20.70;;;;;;;;;;5052431;28;20436;-71
2023/12/09 02:16:11;;;;;;;41.38;21.35;;;;;;;;;;5060700;28;20477;-70
2023/12/09 02:18:40;;;;;;;41.30;21.05;;;;;;;;;;5046388;28;20506;-71
2023/12/09 02:21:07;;;;;;;39.53;20.23;;;;;;;;;;5060259;28;20463;-70
2023/12/09 02:23:34;;;;;;;39.92;20.55;;;;;;;;;;5038483;28;20435;-71
2023/12/09 02:26:05;;;;;;;42.28;21.85;;;;;;;;;;5019910;28;20434;-70
2023/12/09 02:28:34;;;;;;;42.20;22.33;;;;;;;;;;5038555;28;20550;-70
2023/12/09 02:31:10;;;;;;;46.25;22.58;;;;;;;;;;5058556;28;20935;-70
2023/12/09 02:33:38;;;;;;;48.95;22.98;;;;;;;;;;5050609;28;20437;-71
2023/12/09 02:36:06;;;;;;;51.08;23.92;;;;;;;;;;5047267;28;20421;-70
2023/12/09 02:38:37;;;;;;;52.90;24.20;;;;;;;;;;5054130;28;20540;-70
2023/12/09 02:41:06;;;;;;;54.87;24.90;;;;;;;;;;5042296;28;20465;-71
2023/12/09 02:43:33;;;;;;;54.28;24.70;;;;;;;;;;5053051;28;20512;-70
2023/12/09 02:46:00;;;;;;;50.30;23.40;;;;;;;;;;5053423;28;20463;-71
2023/12/09 02:48:28;;;;;;;46.05;22.83;;;;;;;;;;5043544;28;20435;-72
2023/12/09 02:50:55;;;;;;;48.75;23.85;;;;;;;;;;5033356;28;20910;-71
2023/12/09 02:53:22;;;;;;;49.55;23.88;;;;;;;;;;5059310;28;20427;-71
2023/12/09 02:55:50;;;;;;;56.25;25.17;;;;;;;;;;5032867;28;20483;-71
2023/12/09 02:58:17;;;;;;;56.50;24.27;;;;;;;;;;5017379;28;20433;-71
2023/12/09 03:00:44;;;;;;;55.20;25.50;;;;;;;;;;5054160;28;20467;-71
2023/12/09 03:03:12;;;;;;;49.70;24.40;;;;;;;;;;5066385;28;20427;-70
2023/12/09 03:05:39;;;;;;;53.67;24.52;;;;;;;;;;5052027;28;21029;-70
2023/12/09 03:08:06;;;;;;;52.25;23.98;;;;;;;;;;5048530;28;20433;-71
2023/12/09 03:10:33;;;;;;;60.13;25.00;;;;;;;;;;5043112;28;20434;-71
2023/12/09 03:13:00;;;;;;;59.42;26.33;;;;;;;;;;5032745;28;20527;-71
2023/12/09 03:15:27;;;;;;;64.00;26.23;;;;;;;;;;5037847;28;20508;-71
2023/12/09 03:17:55;;;;;;;59.15;26.00;;;;;;;;;;5039176;28;20436;-71
2023/12/09 03:20:24;;;;;;;64.93;24.85;;;;;;;;;;5047366;28;20500;-71
2023/12/09 03:22:51;;;;;;;57.63;24.85;;;;;;;;;;5046244;28;20435;-71
2023/12/09 03:25:18;;;;;;;58.13;24.80;;;;;;;;;;5060739;28;20841;-71
2023/12/09 03:27:45;;;;;;;52.95;23.60;;;;;;;;;;5055484;28;21955;-71
2023/12/09 03:30:12;;;;;;;57.70;24.58;;;;;;;;;;5040538;28;20457;-71
2023/12/09 03:32:40;;;;;;;62.60;25.65;;;;;;;;;;5053343;28;20438;-71
2023/12/09 03:35:09;;;;;;;56.55;23.80;;;;;;;;;;5044057;28;20913;-71
2023/12/09 03:37:37;;;;;;;59.00;25.58;;;;;;;;;;5043580;28;20433;-71
2023/12/09 03:40:04;;;;;;;50.20;22.65;;;;;;;;;;5041392;28;20452;-71
2023/12/09 03:42:32;;;;;;;55.47;23.70;;;;;;;;;;5050450;28;20525;-71
2023/12/09 03:44:59;;;;;;;58.03;23.98;;;;;;;;;;5047743;28;20461;-71
2023/12/09 03:47:27;;;;;;;56.00;24.00;;;;;;;;;;5034016;28;20483;-71
2023/12/09 03:49:56;;;;;;;61.47;25.03;;;;;;;;;;5033536;28;20429;-71
2023/12/09 03:52:23;;;;;;;54.45;23.90;;;;;;;;;;5041498;28;20484;-71
2023/12/09 03:54:51;;;;;;;54.10;24.05;;;;;;;;;;5042121;28;20423;-72
2023/12/09 03:57:18;;;;;;;48.25;23.42;;;;;;;;;;5055174;28;20497;-71
2023/12/09 03:59:45;;;;;;;54.72;23.58;;;;;;;;;;5054104;28;20429;-71
2023/12/09 04:02:12;;;;;;;53.17;23.63;;;;;;;;;;5046035;28;20422;-72
2023/12/09 04:04:40;;;;;;;49.13;22.77;;;;;;;;;;5031922;28;20426;-71
2023/12/09 04:07:07;;;;;;;55.08;24.00;;;;;;;;;;5033953;28;20435;-71
2023/12/09 04:09:35;;;;;;;64.43;24.85;;;;;;;;;;5028004;28;20438;-72
2023/12/09 04:12:02;;;;;;;61.78;24.38;;;;;;;;;;5038602;28;20431;-72
2023/12/09 04:14:29;;;;;;;50.28;23.48;;;;;;;;;;5063872;28;20450;-71
2023/12/09 04:16:56;;;;;;;49.53;23.38;;;;;;;;;;5055638;28;20423;-72
2023/12/09 04:19:24;;;;;;;53.88;22.38;;;;;;;;;;5050323;28;20433;-71
2023/12/09 04:21:51;;;;;;;59.20;23.30;;;;;;;;;;5038898;28;21001;-71
2023/12/09 04:24:19;;;;;;;60.58;24.27;;;;;;;;;;5055459;28;20468;-72
2023/12/09 04:26:46;;;;;;;55.00;23.10;;;;;;;;;;5051999;28;20440;-71
2023/12/09 04:29:13;;;;;;;79.50;25.20;;;;;;;;;;5045237;28;20436;-71
2023/12/09 04:31:42;;;;;;;76.18;25.40;;;;;;;;;;5028832;28;20510;-72
2023/12/09 04:34:10;;;;;;;71.40;22.92;;;;;;;;;;5056816;28;20438;-72
2023/12/09 04:36:37;;;;;;;67.68;25.08;;;;;;;;;;5048351;28;20933;-72
2023/12/09 04:39:05;;;;;;;63.38;23.92;;;;;;;;;;5028181;28;20435;-72
2023/12/09 04:41:32;;;;;;;110.75;27.15;;;;;;;;;;5047674;28;20487;-72
2023/12/09 04:43:59;;;;;;;99.15;27.08;;;;;;;;;;5058843;28;20504;-71
2023/12/09 04:46:26;;;;;;;78.72;24.80;;;;;;;;;;5060461;28;20431;-73
2023/12/09 04:48:54;;;;;;;51.10;20.60;;;;;;;;;;5061725;28;20427;-72
2023/12/09 04:51:21;;;;;;;87.43;25.23;;;;;;;;;;5048653;28;20959;-72
2023/12/09 04:53:48;;;;;;;108.18;25.70;;;;;;;;;;5032179;28;20474;-71
2023/12/09 04:56:15;;;;;;;97.82;25.17;;;;;;;;;;5029156;28;20972;-72
2023/12/09 04:58:42;;;;;;;72.10;22.70;;;;;;;;;;5045911;28;20527;-71
2023/12/09 05:01:09;;;;;;;152.17;28.97;;;;;;;;;;5050386;28;20755;-71
2023/12/09 05:03:37;;;;;;;228.80;31.73;;;;;;;;;;5048384;28;20437;-71
2023/12/09 05:06:04;;;;;;;174.20;28.00;;;;;;;;;;5049343;28;20864;-72
2023/12/09 05:08:31;;;;;;;179.32;28.27;;;;;;;;;;5037036;28;20813;-72
2023/12/09 05:10:59;;;;;;;343.85;35.25;;;;;;;;;;5050214;28;20433;-71
2023/12/09 05:13:26;;;;;;;230.55;30.80;;;;;;;;;;5045956;28;20541;-71
2023/12/09 05:15:53;;;;;;;238.43;29.70;;;;;;;;;;5049276;28;20433;-71
2023/12/09 05:18:20;;;;;;;207.97;29.33;;;;;;;;;;5056481;28;20436;-70
2023/12/09 05:20:48;;;;;;;402.38;36.83;;;;;;;;;;5056819;28;20430;-70
2023/12/09 05:23:15;;;;;;;326.88;32.67;;;;;;;;;;5047738;28;20432;-70
2023/12/09 05:25:44;;;;;;;246.90;29.45;;;;;;;;;;5029327;28;20434;-71
2023/12/09 05:28:11;;;;;;;220.63;30.48;;;;;;;;;;5058825;28;20490;-70
2023/12/09 05:30:41;;;;;;;215.00;30.85;;;;;;;;;;5045204;28;20429;-71
2023/12/09 05:33:08;;;;;;;251.80;32.80;;;;;;;;;;5047992;28;20440;-71
2023/12/09 05:35:36;;;;;;;234.18;29.85;;;;;;;;;;5049943;28;20461;-71
2023/12/09 05:38:03;;;;;;;294.23;33.20;;;;;;;;;;5045107;28;20998;-71
2023/12/09 05:40:30;;;;;;;309.48;33.58;;;;;;;;;;5051357;28;20470;-71
2023/12/09 05:43:01;;;;;;;236.63;31.85;;;;;;;;;;5042707;28;20435;-71
2023/12/09 05:45:29;;;;;;;276.23;32.70;;;;;;;;;;5043098;28;20435;-71
2023/12/09 05:47:56;;;;;;;249.15;29.90;;;;;;;;;;5046878;28;20429;-71
2023/12/09 05:50:24;;;;;;;361.63;35.78;;;;;;;;;;5046998;28;20425;-71
2023/12/09 05:52:51;;;;;;;326.65;35.33;;;;;;;;;;5039796;28;20427;-71
2023/12/09 05:55:18;;;;;;;262.25;32.22;;;;;;;;;;5048996;28;20598;-71
2023/12/09 05:57:46;;;;;;;305.63;33.83;;;;;;;;;;5035155;28;20538;-71
2023/12/09 06:00:13;;;;;;;251.95;32.20;;;;;;;;;;5045730;28;20425;-71
2023/12/09 06:02:41;;;;;;;283.45;33.72;;;;;;;;;;5041475;28;20532;-71
2023/12/09 06:05:09;;;;;;;279.58;33.33;;;;;;;;;;5049980;28;20432;-71
2023/12/09 06:07:36;;;;;;;299.10;34.50;;;;;;;;;;5048243;28;20921;-71
2023/12/09 06:10:05;;;;;;;241.73;32.85;;;;;;;;;;5044353;28;20530;-73
2023/12/09 06:12:32;;;;;;;286.60;33.78;;;;;;;;;;5047988;28;20461;-71
2023/12/09 06:14:59;;;;;;;229.97;31.97;;;;;;;;;;5048987;28;20429;-71
2023/12/09 06:17:27;;;;;;;281.92;33.30;;;;;;;;;;5052817;28;20508;-71
2023/12/09 06:19:54;;;;;;;254.38;32.78;;;;;;;;;;5051952;28;20508;-70
2023/12/09 06:22:21;;;;;;;348.53;37.27;;;;;;;;;;5049798;28;20433;-70
2023/12/09 06:24:49;;;;;;;307.42;32.95;;;;;;;;;;5057443;28;20462;-70
2023/12/09 06:27:16;;;;;;;302.05;31.73;;;;;;;;;;5042384;28;20835;-70
2023/12/09 06:29:46;;;;;;;207.70;29.60;;;;;;;;;;5051624;28;20912;-69
2023/12/09 06:32:14;;;;;;;162.55;27.45;;;;;;;;;;5051762;28;20511;-69
2023/12/09 06:34:41;;;;;;;279.80;31.88;;;;;;;;;;5058936;28;20479;-70
2023/12/09 06:37:08;;;;;;;198.13;30.80;;;;;;;;;;5059994;28;20887;-70
2023/12/09 06:39:36;;;;;;;228.73;31.30;;;;;;;;;;5050426;28;20907;-70
2023/12/09 06:42:03;;;;;;;179.75;28.98;;;;;;;;;;5042329;28;20433;-69
2023/12/09 06:44:31;;;;;;;130.07;27.95;;;;;;;;;;5046222;28;20429;-69
2023/12/09 06:46:58;;;;;;;115.97;27.00;;;;;;;;;;5049060;28;20435;-69
2023/12/09 06:49:25;;;;;;;79.82;23.58;;;;;;;;;;5045866;28;20464;-70
2023/12/09 06:51:52;;;;;;;67.22;23.55;;;;;;;;;;5044818;28;20506;-70
2023/12/09 06:54:19;;;;;;;80.57;25.05;;;;;;;;;;5033549;28;20460;-70
2023/12/09 06:56:47;;;;;;;66.57;24.10;;;;;;;;;;5041286;28;20468;-70
2023/12/09 06:59:14;;;;;;;96.00;24.13;;;;;;;;;;5029628;28;20496;-70
2023/12/09 07:01:43;;;;;;;87.07;24.45;;;;;;;;;;5046527;28;20465;-70
2023/12/09 07:04:12;;;;;;;52.55;20.58;;;;;;;;;;5042465;28;20486;-70
2023/12/09 07:06:39;;;;;;;40.20;19.30;;;;;;;;;;5020308;28;20585;-70
2023/12/09 07:09:11;;;;;;;43.33;19.98;;;;;;;;;;5029781;28;20434;-70
2023/12/09 07:11:38;;;;;;;39.75;19.40;;;;;;;;;;5038632;28;21107;-71
2023/12/09 07:14:05;;;;;;;46.80;20.60;;;;;;;;;;5043983;28;20771;-70
2023/12/09 07:16:32;;;;;;;42.50;20.02;;;;;;;;;;5028703;28;20897;-71
2023/12/09 07:19:00;;;;;;;46.40;20.52;;;;;;;;;;5031219;28;20955;-70
2023/12/09 07:21:28;;;;;;;42.42;19.65;;;;;;;;;;5025319;28;20924;-70
2023/12/09 07:23:56;;;;;;;42.53;19.85;;;;;;;;;;5038130;28;20937;-70
2023/12/09 07:26:23;;;;;;;46.80;20.20;;;;;;;;;;5022424;28;20439;-71
2023/12/09 07:28:50;;;;;;;35.80;17.83;;;;;;;;;;5037905;28;21161;-70
2023/12/09 07:31:18;;;;;;;40.38;19.13;;;;;;;;;;5041020;28;20440;-70
2023/12/09 07:33:45;;;;;;;31.83;17.73;;;;;;;;;;5039372;28;20440;-70
2023/12/09 07:36:12;;;;;;;36.10;17.35;;;;;;;;;;5034102;28;20463;-70
2023/12/09 07:38:39;;;;;;;33.97;17.33;;;;;;;;;;5033216;28;20446;-70
2023/12/09 07:41:07;;;;;;;36.00;16.23;;;;;;;;;;5034141;28;20431;-70
2023/12/09 07:43:34;;;;;;;35.53;17.40;;;;;;;;;;5039870;28;20925;-70
2023/12/09 07:46:06;;;;;;;41.28;18.05;;;;;;;;;;5019938;28;21012;-72
2023/12/09 07:48:33;;;;;;;41.80;18.70;;;;;;;;;;5039938;28;20522;-70
2023/12/09 07:51:01;;;;;;;38.35;18.65;;;;;;;;;;5039909;28;21074;-70
2023/12/09 07:53:29;;;;;;;40.65;18.15;;;;;;;;;;5041990;28;20433;-70
2023/12/09 07:55:57;;;;;;;35.78;18.20;;;;;;;;;;5020207;28;20437;-70
2023/12/09 07:58:24;;;;;;;45.30;18.23;;;;;;;;;;5024053;28;20448;-70
2023/12/09 08:00:51;;;;;;;39.38;18.27;;;;;;;;;;5035471;28;20425;-71
2023/12/09 08:03:19;;;;;;;39.40;17.80;;;;;;;;;;5040340;28;20519;-71
2023/12/09 08:05:46;;;;;;;42.03;18.55;;;;;;;;;;5045125;28;20514;-70
2023/12/09 08:08:13;;;;;;;44.57;18.37;;;;;;;;;;5040605;28;20914;-70
2023/12/09 08:10:41;;;;;;;38.80;18.77;;;;;;;;;;5039602;28;20461;-71
2023/12/09 08:13:08;;;;;;;36.33;17.83;;;;;;;;;;5032801;28;20425;-70
2023/12/09 08:15:36;;;;;;;39.45;18.75;;;;;;;;;;5042051;28;20422;-71
2023/12/09 08:18:03;;;;;;;42.28;18.42;;;;;;;;;;5069472;28;20435;-70
2023/12/09 08:20:31;;;;;;;37.03;18.65;;;;;;;;;;5051144;28;20469;-70
2023/12/09 08:22:58;;;;;;;36.42;18.48;;;;;;;;;;5058030;28;20431;-71
2023/12/09 08:25:25;;;;;;;40.45;18.70;;;;;;;;;;5044126;28;20524;-70
2023/12/09 08:27:52;;;;;;;40.30;19.33;;;;;;;;;;5046418;28;20443;-71
2023/12/09 08:30:19;;;;;;;39.47;19.00;;;;;;;;;;5043325;28;20496;-71
2023/12/09 08:32:46;;;;;;;38.92;18.95;;;;;;;;;;5047178;28;20986;-70
2023/12/09 08:35:14;;;;;;;39.88;18.52;;;;;;;;;;5053779;28;20425;-70
2023/12/09 08:37:41;;;;;;;41.50;18.55;;;;;;;;;;5037104;28;20434;-71
2023/12/09 08:40:13;;;;;;;40.33;18.93;;;;;;;;;;5043258;28;20429;-70
2023/12/09 08:42:40;;;;;;;39.53;19.17;;;;;;;;;;5051293;28;20433;-70
2023/12/09 08:45:09;;;;;;;40.15;18.85;;;;;;;;;;5048193;28;20435;-70
2023/12/09 08:47:36;;;;;;;42.45;19.23;;;;;;;;;;5061425;28;20432;-70
2023/12/09 08:50:06;;;;;;;35.67;18.90;;;;;;;;;;5052199;28;21089;-71
2023/12/09 08:52:49;;;;;;;38.25;19.27;;;;;;;;;;5052231;28;20929;-70
2023/12/09 08:55:17;;;;;;;39.15;19.17;;;;;;;;;;5047748;28;20773;-70
2023/12/09 08:57:45;;;;;;;40.03;19.92;;;;;;;;;;5047534;28;20491;-70
2023/12/09 09:00:13;;;;;;;38.78;19.20;;;;;;;;;;5063268;28;20436;-70
2023/12/09 09:02:41;;;;;;;39.50;19.60;;;;;;;;;;5051400;28;20427;-70
2023/12/09 09:05:09;;;;;;;41.95;19.55;;;;;;;;;;5058616;28;20911;-70
2023/12/09 09:07:40;;;;;;;38.85;18.58;;;;;;;;;;5042224;28;20433;-71
2023/12/09 09:10:08;;;;;;;36.40;19.38;;;;;;;;;;5046368;28;20442;-71
2023/12/09 09:12:35;;;;;;;33.72;17.70;;;;;;;;;;5027938;28;20433;-71
2023/12/09 09:15:02;;;;;;;36.30;18.52;;;;;;;;;;5056398;28;20431;-70
2023/12/09 09:17:36;;;;;;;30.77;17.97;;;;;;;;;;5046880;28;20916;-70
2023/12/09 09:20:04;;;;;;;26.35;15.90;;;;;;;;;;5042624;28;20436;-70
2023/12/09 09:22:33;;;;;;;32.57;16.20;;;;;;;;;;5028661;28;20425;-71
2023/12/09 09:25:00;;;;;;;29.05;15.82;;;;;;;;;;5039395;28;20440;-71
2023/12/09 09:27:28;;;;;;;27.60;15.18;;;;;;;;;;5043785;28;20444;-71
2023/12/09 09:29:55;;;;;;;26.02;14.38;;;;;;;;;;5033667;28;20433;-71
2023/12/09 09:32:23;;;;;;;21.45;13.52;;;;;;;;;;5030626;28;20422;-70
2023/12/09 09:34:50;;;;;;;29.08;13.48;;;;;;;;;;5025011;28;20502;-70
2023/12/09 09:37:18;;;;;;;26.30;13.57;;;;;;;;;;5036050;28;20922;-70
2023/12/09 09:39:45;;;;;;;23.27;12.95;;;;;;;;;;5040472;28;20435;-70
2023/12/09 09:42:12;;;;;;;22.20;12.80;;;;;;;;;;5041205;28;20433;-70
2023/12/09 09:45:01;;;;;;;22.05;13.05;;;;;;;;;;5027233;28;20444;-71
2023/12/09 09:47:29;;;;;;;21.10;12.82;;;;;;;;;;5027631;28;20506;-71
2023/12/09 09:49:57;;;;;;;21.73;13.45;;;;;;;;;;5037783;28;20462;-71
2023/12/09 09:52:25;;;;;;;21.70;12.05;;;;;;;;;;5047859;28;20427;-72
2023/12/09 09:54:53;;;;;;;21.52;11.52;;;;;;;;;;5044525;28;20434;-72
2023/12/09 09:57:21;;;;;;;20.08;11.55;;;;;;;;;;5047130;28;20457;-72
2023/12/09 09:59:53;;;;;;;19.70;12.13;;;;;;;;;;5041634;28;20486;-71
2023/12/09 10:02:20;;;;;;;18.40;11.73;;;;;;;;;;5055134;28;21232;-71
2023/12/09 10:04:47;;;;;;;23.95;13.10;;;;;;;;;;5062112;28;20435;-71
2023/12/09 10:07:15;;;;;;;22.20;12.38;;;;;;;;;;5057477;28;20512;-71
2023/12/09 10:09:42;;;;;;;24.02;12.43;;;;;;;;;;5056762;28;20429;-71
2023/12/09 10:12:09;;;;;;;19.42;12.10;;;;;;;;;;5043932;28;20483;-71
2023/12/09 10:14:36;;;;;;;20.05;11.18;;;;;;;;;;5053683;28;20440;-71
2023/12/09 10:17:04;;;;;;;18.38;11.23;;;;;;;;;;5052820;28;20469;-71
2023/12/09 10:19:31;;;;;;;19.93;11.13;;;;;;;;;;5029061;28;20471;-71
2023/12/09 10:21:58;;;;;;;16.88;10.82;;;;;;;;;;5055798;28;20433;-73
2023/12/09 10:24:25;;;;;;;15.27;10.35;;;;;;;;;;5054851;28;20437;-71
2023/12/09 10:26:53;;;;;;;17.25;10.63;;;;;;;;;;5045613;28;20437;-70
2023/12/09 10:29:20;;;;;;;18.27;11.50;;;;;;;;;;5046686;28;20564;-71
2023/12/09 10:31:47;;;;;;;18.20;11.63;;;;;;;;;;5040778;28;20923;-70
2023/12/09 10:34:14;;;;;;;16.25;10.90;;;;;;;;;;5039305;28;20532;-71
2023/12/09 10:36:42;;;;;;;18.63;11.18;;;;;;;;;;5039760;28;20429;-71
2023/12/09 10:39:09;;;;;;;16.55;10.60;;;;;;;;;;5041987;28;20524;-70
2023/12/09 10:41:37;;;;;;;15.70;9.90;;;;;;;;;;5044372;28;20549;-71
2023/12/09 10:44:04;;;;;;;17.92;10.45;;;;;;;;;;5057293;28;20437;-71
2023/12/09 10:46:31;;;;;;;17.67;10.05;;;;;;;;;;5028508;28;20439;-71
2023/12/09 10:49:02;;;;;;;13.60;9.43;;;;;;;;;;5042117;28;20430;-71
2023/12/09 10:51:29;;;;;;;21.27;9.80;;;;;;;;;;5045231;28;20439;-71
2023/12/09 10:53:56;;;;;;;14.43;9.17;;;;;;;;;;5037787;28;20430;-71
2023/12/09 10:56:23;;;;;;;19.02;9.05;;;;;;;;;;5052362;28;22516;-71
2023/12/09 10:58:52;;;;;;;15.02;8.65;;;;;;;;;;5041019;28;20510;-71
2023/12/09 11:01:20;;;;;;;16.70;9.13;;;;;;;;;;5037187;28;20436;-71
2023/12/09 11:03:47;;;;;;;16.00;9.05;;;;;;;;;;5047899;28;20439;-71
2023/12/09 11:06:16;;;;;;;15.90;9.15;;;;;;;;;;5038888;28;20427;-71
2023/12/09 11:08:43;;;;;;;14.43;9.00;;;;;;;;;;5038132;28;20504;-71
2023/12/09 11:11:11;;;;;;;15.98;8.50;;;;;;;;;;5039322;28;20828;-71
2023/12/09 11:13:44;;;;;;;16.85;8.23;;;;;;;;;;5042713;28;20972;-71
2023/12/09 11:16:12;;;;;;;13.90;7.75;;;;;;;;;;5048875;28;20425;-69
2023/12/09 11:18:56;;;;;;;15.63;7.93;;;;;;;;;;5046207;28;20589;-70
2023/12/09 11:21:31;;;;;;;15.52;7.88;;;;;;;;;;5015856;28;20449;-70
2023/12/09 11:23:59;;;;;;;15.35;8.77;;;;;;;;;;5038043;28;20817;-71
2023/12/09 11:26:28;;;;;;;16.15;9.10;;;;;;;;;;5037479;28;20452;-70
2023/12/09 11:28:59;;;;;;;17.40;8.60;;;;;;;;;;5034169;28;20510;-70
2023/12/09 11:31:46;;;;;;;15.52;9.07;;;;;;;;;;5013707;28;20475;-70
2023/12/09 11:34:15;;;;;;;15.50;8.73;;;;;;;;;;5029038;28;20497;-71
2023/12/09 11:36:43;;;;;;;12.57;8.38;;;;;;;;;;5033428;28;20454;-70
2023/12/09 11:39:14;;;;;;;17.52;9.23;;;;;;;;;;5033788;28;20436;-70
2023/12/09 11:41:41;;;;;;;16.30;8.43;;;;;;;;;;5035495;28;20941;-70
2023/12/09 11:44:09;;;;;;;14.70;8.23;;;;;;;;;;5036116;28;20436;-70
2023/12/09 11:46:37;;;;;;;13.80;8.10;;;;;;;;;;5047746;28;20541;-70
2023/12/09 11:49:04;;;;;;;12.35;7.80;;;;;;;;;;5039510;28;20432;-70
2023/12/09 11:51:36;;;;;;;13.27;8.38;;;;;;;;;;5047900;28;20437;-70
2023/12/09 11:54:08;;;;;;;14.93;7.85;;;;;;;;;;5044570;28;20886;-70
2023/12/09 11:56:37;;;;;;;10.32;7.65;;;;;;;;;;5023255;28;20781;-70
2023/12/09 11:59:05;;;;;;;11.80;7.32;;;;;;;;;;5040907;28;20523;-70
2023/12/09 12:01:33;;;;;;;12.88;7.07;;;;;;;;;;5042289;28;20432;-70
2023/12/09 12:04:01;;;;;;;13.23;7.70;;;;;;;;;;5041769;28;20963;-70
2023/12/09 12:06:28;;;;;;;13.95;7.45;;;;;;;;;;5042090;28;20546;-70
2023/12/09 12:08:55;;;;;;;12.13;7.50;;;;;;;;;;5037692;28;20463;-70
2023/12/09 12:11:23;;;;;;;11.47;7.17;;;;;;;;;;5044864;28;20421;-70
2023/12/09 12:13:52;;;;;;;12.88;6.90;;;;;;;;;;5024417;28;20544;-70
2023/12/09 12:16:19;;;;;;;12.10;6.82;;;;;;;;;;5051678;28;20465;-70
2023/12/09 12:18:47;;;;;;;10.93;7.25;;;;;;;;;;5044118;28;20424;-69
2023/12/09 12:21:15;;;;;;;11.25;7.45;;;;;;;;;;5032607;28;20434;-69
2023/12/09 12:23:43;;;;;;;10.70;7.22;;;;;;;;;;5038441;28;20424;-70
2023/12/09 12:26:12;;;;;;;11.10;7.40;;;;;;;;;;5036180;28;20464;-70
2023/12/09 12:28:40;;;;;;;13.30;8.00;;;;;;;;;;5041523;28;20435;-70
2023/12/09 12:31:10;;;;;;;11.82;7.68;;;;;;;;;;5020184;28;21013;-69
2023/12/09 12:33:39;;;;;;;14.35;7.85;;;;;;;;;;5039334;28;20437;-69
2023/12/09 12:36:07;;;;;;;12.65;7.68;;;;;;;;;;5038260;28;20483;-70
2023/12/09 12:38:35;;;;;;;10.83;7.90;;;;;;;;;;5042075;28;20425;-69
2023/12/09 12:41:03;;;;;;;13.15;8.20;;;;;;;;;;5025900;28;20540;-70
2023/12/09 12:43:31;;;;;;;12.02;7.88;;;;;;;;;;5034613;28;20433;-69
2023/12/09 12:45:59;;;;;;;12.20;7.32;;;;;;;;;;5040753;28;20448;-69
2023/12/09 12:48:27;;;;;;;13.32;8.07;;;;;;;;;;5036775;28;20439;-69
2023/12/09 12:50:55;;;;;;;14.30;6.47;;;;;;;;;;5030827;28;21514;-69
2023/12/09 12:53:24;;;;;;;12.18;6.85;;;;;;;;;;5039554;28;20436;-69
2023/12/09 12:55:54;;;;;;;12.10;6.40;;;;;;;;;;5037428;28;20488;-69
2023/12/09 12:58:22;;;;;;;11.23;6.28;;;;;;;;;;5035008;28;20465;-69
2023/12/09 13:00:51;;;;;;;9.05;6.00;;;;;;;;;;5036313;28;21047;-69
2023/12/09 13:03:19;;;;;;;11.40;6.35;;;;;;;;;;5038542;28;20534;-69
2023/12/09 13:05:47;;;;;;;13.27;6.32;;;;;;;;;;5029002;28;20521;-69
2023/12/09 13:08:14;;;;;;;11.13;6.63;;;;;;;;;;5036735;28;20436;-69
2023/12/09 13:10:41;;;;;;;10.85;6.70;;;;;;;;;;5043943;28;20429;-69
2023/12/09 13:13:08;;;;;;;9.20;6.20;;;;;;;;;;5042033;28;20441;-69
2023/12/09 13:15:35;;;;;;;11.15;5.50;;;;;;;;;;5040320;28;20432;-69
2023/12/09 13:18:03;;;;;;;7.85;5.00;;;;;;;;;;5041338;28;20425;-69
2023/12/09 13:20:31;;;;;;;8.60;4.63;;;;;;;;;;5045471;28;20437;-69
2023/12/09 13:22:58;;;;;;;7.73;4.47;;;;;;;;;;5035444;28;20534;-69
2023/12/09 13:25:25;;;;;;;6.38;3.97;;;;;;;;;;5037119;28;20435;-69
2023/12/09 13:27:53;;;;;;;7.05;4.20;;;;;;;;;;5031983;28;20439;-69
2023/12/09 13:30:21;;;;;;;8.00;3.88;;;;;;;;;;5038107;28;20443;-68
2023/12/09 13:32:49;;;;;;;5.75;3.60;;;;;;;;;;5050953;28;20457;-68
2023/12/09 13:35:18;;;;;;;5.40;3.78;;;;;;;;;;5039804;28;20440;-68
2023/12/09 13:37:45;;;;;;;7.93;4.20;;;;;;;;;;5040185;28;20880;-69
2023/12/09 13:40:12;;;;;;;7.35;3.67;;;;;;;;;;5047389;28;20503;-70
2023/12/09 13:42:40;;;;;;;5.15;3.15;;;;;;;;;;5018281;28;20513;-69
2023/12/09 13:45:07;;;;;;;5.60;3.10;;;;;;;;;;5016557;28;20430;-69
2023/12/09 13:47:35;;;;;;;5.43;3.15;;;;;;;;;;5036798;28;20514;-69
2023/12/09 13:50:04;;;;;;;7.47;3.30;;;;;;;;;;5040497;28;20516;-69
2023/12/09 13:52:32;;;;;;;5.10;3.42;;;;;;;;;;5039666;28;20429;-68
2023/12/09 13:54:59;;;;;;;6.28;3.50;;;;;;;;;;5034200;28;20483;-69
2023/12/09 13:57:26;;;;;;;7.10;3.50;;;;;;;;;;5034013;28;20788;-69
2023/12/09 13:59:54;;;;;;;6.63;3.60;;;;;;;;;;5031255;28;20434;-69
2023/12/09 14:02:22;;;;;;;7.77;3.67;;;;;;;;;;5031886;28;20482;-69
2023/12/09 14:04:49;;;;;;;5.70;3.23;;;;;;;;;;5039068;28;20435;-69
2023/12/09 14:07:17;;;;;;;5.28;3.78;;;;;;;;;;5037401;28;20444;-69
2023/12/09 14:09:44;;;;;;;8.15;3.25;;;;;;;;;;5038002;28;20441;-69
2023/12/09 14:12:11;;;;;;;6.03;2.90;;;;;;;;;;5034777;28;20427;-69
2023/12/09 14:14:39;;;;;;;6.13;3.40;;;;;;;;;;5032405;28;20439;-69
2023/12/09 14:17:09;;;;;;;6.25;3.17;;;;;;;;;;5032736;28;20438;-69
2023/12/09 14:19:37;;;;;;;5.22;2.80;;;;;;;;;;5043912;28;20504;-69
2023/12/09 14:22:05;;;;;;;7.20;3.00;;;;;;;;;;5025366;28;20440;-69